Terminal Aerodrome Forecast
Issued by NWS

Home | Current Version | Previous Version | Text Only | Print | Product List | Glossary On
Versions: 1 2 3 4 5 6 7 8 9 10 11 12 13 14 15 16 17 18
555
FTUS46 KSEW 190520
TAFPAE
TAF
KPAE 190520Z 1906/2006 16014KT P6SM -RA SCT010 OVC070
      TEMPO 1906/1909 4SM RA BR OVC010
     FM191200 18012KT P6SM BKN020 OVC040
     FM191800 19010KT P6SM -SHRA OVC020=

USA.gov is the U.S. government's official web portal to all federal, state and local government web resources and services.